sensor_id;sensor_type;location;lat;lon;timestamp;P1;durP1;ratioP1;P2;durP2;ratioP2
79592;SDS011;69074;45.164;9.704;2023-09-12T00:01:02;63.9;;;53.3;;
79592;SDS011;69074;45.164;9.704;2023-09-12T00:03:23;52.8;;;43.2;;
79592;SDS011;69074;45.164;9.704;2023-09-12T00:05:51;52.8;;;43.2;;
79592;SDS011;69074;45.164;9.704;2023-09-12T00:08:13;52.8;;;43.2;;
79592;SDS011;69074;45.164;9.704;2023-09-12T00:10:38;52.8;;;43.2;;
79592;SDS011;69074;45.164;9.704;2023-09-12T00:13:03;52.8;;;43.2;;
79592;SDS011;69074;45.164;9.704;2023-09-12T00:15:28;52.8;;;43.2;;
79592;SDS011;69074;45.164;9.704;2023-09-12T00:17:53;49.8;;;42.9;;
79592;SDS011;69074;45.164;9.704;2023-09-12T00:20:18;49.8;;;42.9;;
79592;SDS011;69074;45.164;9.704;2023-09-12T00:22:43;49.8;;;42.9;;
79592;SDS011;69074;45.164;9.704;2023-09-12T00:25:08;49.8;;;42.9;;
79592;SDS011;69074;45.164;9.704;2023-09-12T00:27:33;49.8;;;42.9;;
79592;SDS011;69074;45.164;9.704;2023-09-12T00:29:58;49.8;;;42.9;;
79592;SDS011;69074;45.164;9.704;2023-09-12T00:32:23;58.4;;;49.0;;
79592;SDS011;69074;45.164;9.704;2023-09-12T00:34:48;58.4;;;49.0;;
79592;SDS011;69074;45.164;9.704;2023-09-12T00:37:13;58.4;;;49.0;;
79592;SDS011;69074;45.164;9.704;2023-09-12T00:39:38;58.4;;;49.0;;
79592;SDS011;69074;45.164;9.704;2023-09-12T00:42:03;58.4;;;49.0;;
79592;SDS011;69074;45.164;9.704;2023-09-12T00:44:28;58.4;;;49.0;;
79592;SDS011;69074;45.164;9.704;2023-09-12T00:46:53;58.4;;;49.0;;
79592;SDS011;69074;45.164;9.704;2023-09-12T00:49:18;50.5;;;43.7;;
79592;SDS011;69074;45.164;9.704;2023-09-12T00:51:43;50.5;;;43.7;;
79592;SDS011;69074;45.164;9.704;2023-09-12T00:54:08;50.5;;;43.7;;
79592;SDS011;69074;45.164;9.704;2023-09-12T00:56:33;50.5;;;43.7;;
79592;SDS011;69074;45.164;9.704;2023-09-12T00:58:58;50.5;;;43.7;;
79592;SDS011;69074;45.164;9.704;2023-09-12T01:01:23;50.5;;;43.7;;
79592;SDS011;69074;45.164;9.704;2023-09-12T01:03:48;57.6;;;49.0;;
79592;SDS011;69074;45.164;9.704;2023-09-12T01:06:13;57.6;;;49.0;;
79592;SDS011;69074;45.164;9.704;2023-09-12T01:08:38;57.6;;;49.0;;
79592;SDS011;69074;45.164;9.704;2023-09-12T01:11:03;57.6;;;49.0;;
79592;SDS011;69074;45.164;9.704;2023-09-12T01:13:28;57.6;;;49.0;;
79592;SDS011;69074;45.164;9.704;2023-09-12T01:15:53;57.6;;;49.0;;
79592;SDS011;69074;45.164;9.704;2023-09-12T01:18:18;60.3;;;50.8;;
79592;SDS011;69074;45.164;9.704;2023-09-12T01:20:47;60.3;;;50.8;;
79592;SDS011;69074;45.164;9.704;2023-09-12T01:23:14;60.3;;;50.8;;
79592;SDS011;69074;45.164;9.704;2023-09-12T01:25:41;60.3;;;50.8;;
79592;SDS011;69074;45.164;9.704;2023-09-12T01:27:58;60.3;;;50.8;;
79592;SDS011;69074;45.164;9.704;2023-09-12T01:30:23;60.3;;;50.8;;
79592;SDS011;69074;45.164;9.704;2023-09-12T01:32:48;59.5;;;52.5;;
79592;SDS011;69074;45.164;9.704;2023-09-12T01:35:13;59.5;;;52.5;;
79592;SDS011;69074;45.164;9.704;2023-09-12T01:37:38;59.5;;;52.5;;
79592;SDS011;69074;45.164;9.704;2023-09-12T01:40:03;59.5;;;52.5;;
79592;SDS011;69074;45.164;9.704;2023-09-12T01:42:30;59.5;;;52.5;;
79592;SDS011;69074;45.164;9.704;2023-09-12T01:44:54;59.5;;;52.5;;
79592;SDS011;69074;45.164;9.704;2023-09-12T01:47:18;59.5;;;50.8;;
79592;SDS011;69074;45.164;9.704;2023-09-12T01:49:45;59.5;;;50.8;;
79592;SDS011;69074;45.164;9.704;2023-09-12T01:52:09;59.5;;;50.8;;
79592;SDS011;69074;45.164;9.704;2023-09-12T01:54:33;59.5;;;50.8;;
79592;SDS011;69074;45.164;9.704;2023-09-12T01:56:58;59.5;;;50.8;;
79592;SDS011;69074;45.164;9.704;2023-09-12T01:59:23;59.5;;;50.8;;
79592;SDS011;69074;45.164;9.704;2023-09-12T02:01:48;59.5;;;50.8;;
79592;SDS011;69074;45.164;9.704;2023-09-12T02:04:13;55.4;;;46.0;;
79592;SDS011;69074;45.164;9.704;2023-09-12T02:06:38;55.4;;;46.0;;
79592;SDS011;69074;45.164;9.704;2023-09-12T02:09:03;55.4;;;46.0;;
79592;SDS011;69074;45.164;9.704;2023-09-12T02:11:28;55.4;;;46.0;;
79592;SDS011;69074;45.164;9.704;2023-09-12T02:13:53;55.4;;;46.0;;
79592;SDS011;69074;45.164;9.704;2023-09-12T02:16:18;55.4;;;46.0;;
79592;SDS011;69074;45.164;9.704;2023-09-12T02:18:43;48.7;;;40.9;;
79592;SDS011;69074;45.164;9.704;2023-09-12T02:21:08;48.7;;;40.9;;
79592;SDS011;69074;45.164;9.704;2023-09-12T02:23:33;48.7;;;40.9;;
79592;SDS011;69074;45.164;9.704;2023-09-12T02:25:58;48.7;;;40.9;;
79592;SDS011;69074;45.164;9.704;2023-09-12T02:28:23;48.7;;;40.9;;
79592;SDS011;69074;45.164;9.704;2023-09-12T02:30:48;48.7;;;40.9;;
79592;SDS011;69074;45.164;9.704;2023-09-12T02:33:13;43.0;;;37.4;;
79592;SDS011;69074;45.164;9.704;2023-09-12T02:35:38;43.0;;;37.4;;
79592;SDS011;69074;45.164;9.704;2023-09-12T02:38:03;43.0;;;37.4;;
79592;SDS011;69074;45.164;9.704;2023-09-12T02:40:28;43.0;;;37.4;;
79592;SDS011;69074;45.164;9.704;2023-09-12T02:42:53;43.0;;;37.4;;
79592;SDS011;69074;45.164;9.704;2023-09-12T02:45:18;43.0;;;37.4;;
79592;SDS011;69074;45.164;9.704;2023-09-12T02:47:43;44.5;;;39.4;;
79592;SDS011;69074;45.164;9.704;2023-09-12T02:50:08;44.5;;;39.4;;
79592;SDS011;69074;45.164;9.704;2023-09-12T02:52:33;44.5;;;39.4;;
79592;SDS011;69074;45.164;9.704;2023-09-12T02:54:58;44.5;;;39.4;;
79592;SDS011;69074;45.164;9.704;2023-09-12T02:57:23;44.5;;;39.4;;
79592;SDS011;69074;45.164;9.704;2023-09-12T02:59:48;44.5;;;39.4;;
79592;SDS011;69074;45.164;9.704;2023-09-12T03:02:13;44.5;;;39.4;;
79592;SDS011;69074;45.164;9.704;2023-09-12T03:04:38;47.4;;;40.5;;
79592;SDS011;69074;45.164;9.704;2023-09-12T03:07:03;47.4;;;40.5;;
79592;SDS011;69074;45.164;9.704;2023-09-12T03:09:28;47.4;;;40.5;;
79592;SDS011;69074;45.164;9.704;2023-09-12T03:11:53;47.4;;;40.5;;
79592;SDS011;69074;45.164;9.704;2023-09-12T03:14:18;47.4;;;40.5;;
79592;SDS011;69074;45.164;9.704;2023-09-12T03:16:43;47.4;;;40.5;;
79592;SDS011;69074;45.164;9.704;2023-09-12T03:19:08;55.2;;;44.9;;
79592;SDS011;69074;45.164;9.704;2023-09-12T03:21:33;55.2;;;44.9;;
79592;SDS011;69074;45.164;9.704;2023-09-12T03:23:58;55.2;;;44.9;;
79592;SDS011;69074;45.164;9.704;2023-09-12T03:26:23;55.2;;;44.9;;
79592;SDS011;69074;45.164;9.704;2023-09-12T03:28:49;55.2;;;44.9;;
79592;SDS011;69074;45.164;9.704;2023-09-12T03:31:13;55.2;;;44.9;;
79592;SDS011;69074;45.164;9.704;2023-09-12T03:33:38;53.2;;;46.4;;
79592;SDS011;69074;45.164;9.704;2023-09-12T03:36:04;53.2;;;46.4;;
79592;SDS011;69074;45.164;9.704;2023-09-12T03:38:28;53.2;;;46.4;;
79592;SDS011;69074;45.164;9.704;2023-09-12T03:40:53;53.2;;;46.4;;
79592;SDS011;69074;45.164;9.704;2023-09-12T03:43:18;53.2;;;46.4;;
79592;SDS011;69074;45.164;9.704;2023-09-12T03:45:43;53.2;;;46.4;;
79592;SDS011;69074;45.164;9.704;2023-09-12T03:48:08;54.9;;;46.8;;
79592;SDS011;69074;45.164;9.704;2023-09-12T03:50:33;54.9;;;46.8;;
79592;SDS011;69074;45.164;9.704;2023-09-12T03:52:58;54.9;;;46.8;;
79592;SDS011;69074;45.164;9.704;2023-09-12T03:55:23;54.9;;;46.8;;
79592;SDS011;69074;45.164;9.704;2023-09-12T03:57:48;54.9;;;46.8;;
79592;SDS011;69074;45.164;9.704;2023-09-12T04:00:14;54.9;;;46.8;;
79592;SDS011;69074;45.164;9.704;2023-09-12T04:02:38;65.5;;;54.6;;
79592;SDS011;69074;45.164;9.704;2023-09-12T04:05:04;65.5;;;54.6;;
79592;SDS011;69074;45.164;9.704;2023-09-12T04:07:28;65.5;;;54.6;;
79592;SDS011;69074;45.164;9.704;2023-09-12T04:09:53;65.5;;;54.6;;
79592;SDS011;69074;45.164;9.704;2023-09-12T04:12:18;65.5;;;54.6;;
79592;SDS011;69074;45.164;9.704;2023-09-12T04:14:43;65.5;;;54.6;;
79592;SDS011;69074;45.164;9.704;2023-09-12T04:17:08;65.5;;;54.6;;
79592;SDS011;69074;45.164;9.704;2023-09-12T04:19:33;66.2;;;55.6;;
79592;SDS011;69074;45.164;9.704;2023-09-12T04:21:58;66.2;;;55.6;;
79592;SDS011;69074;45.164;9.704;2023-09-12T04:24:23;66.2;;;55.6;;
79592;SDS011;69074;45.164;9.704;2023-09-12T04:26:48;66.2;;;55.6;;
79592;SDS011;69074;45.164;9.704;2023-09-12T04:29:13;66.2;;;55.6;;
79592;SDS011;69074;45.164;9.704;2023-09-12T04:31:38;66.2;;;55.6;;
79592;SDS011;69074;45.164;9.704;2023-09-12T04:34:03;66.2;;;55.6;;
79592;SDS011;69074;45.164;9.704;2023-09-12T04:36:28;66.2;;;55.6;;
79592;SDS011;69074;45.164;9.704;2023-09-12T04:38:53;66.2;;;55.6;;
79592;SDS011;69074;45.164;9.704;2023-09-12T04:41:18;66.2;;;55.6;;
79592;SDS011;69074;45.164;9.704;2023-09-12T04:43:43;66.2;;;55.6;;
79592;SDS011;69074;45.164;9.704;2023-09-12T04:46:08;66.2;;;55.6;;
79592;SDS011;69074;45.164;9.704;2023-09-12T04:48:33;53.8;;;45.3;;
79592;SDS011;69074;45.164;9.704;2023-09-12T04:50:58;53.8;;;45.3;;
79592;SDS011;69074;45.164;9.704;2023-09-12T04:53:23;53.8;;;45.3;;
79592;SDS011;69074;45.164;9.704;2023-09-12T04:55:48;53.8;;;45.3;;
79592;SDS011;69074;45.164;9.704;2023-09-12T04:58:13;53.8;;;45.3;;
79592;SDS011;69074;45.164;9.704;2023-09-12T05:00:38;53.8;;;45.3;;
79592;SDS011;69074;45.164;9.704;2023-09-12T05:03:04;53.8;;;45.3;;
79592;SDS011;69074;45.164;9.704;2023-09-12T05:05:28;53.8;;;45.3;;
79592;SDS011;69074;45.164;9.704;2023-09-12T05:07:53;53.8;;;45.3;;
79592;SDS011;69074;45.164;9.704;2023-09-12T05:10:18;53.8;;;45.3;;
79592;SDS011;69074;45.164;9.704;2023-09-12T05:12:43;53.8;;;45.3;;
79592;SDS011;69074;45.164;9.704;2023-09-12T05:15:09;53.8;;;45.3;;
79592;SDS011;69074;45.164;9.704;2023-09-12T05:17:33;71.4;;;55.1;;
79592;SDS011;69074;45.164;9.704;2023-09-12T05:19:58;71.4;;;55.1;;
79592;SDS011;69074;45.164;9.704;2023-09-12T05:22:23;71.4;;;55.1;;
79592;SDS011;69074;45.164;9.704;2023-09-12T05:24:48;71.4;;;55.1;;
79592;SDS011;69074;45.164;9.704;2023-09-12T05:27:13;71.4;;;55.1;;
79592;SDS011;69074;45.164;9.704;2023-09-12T05:29:38;71.4;;;55.1;;
79592;SDS011;69074;45.164;9.704;2023-09-12T05:32:04;71.4;;;55.1;;
79592;SDS011;69074;45.164;9.704;2023-09-12T05:34:28;71.4;;;55.1;;
79592;SDS011;69074;45.164;9.704;2023-09-12T05:36:53;71.4;;;55.1;;
79592;SDS011;69074;45.164;9.704;2023-09-12T05:39:18;71.4;;;55.1;;
79592;SDS011;69074;45.164;9.704;2023-09-12T05:41:43;71.4;;;55.1;;
79592;SDS011;69074;45.164;9.704;2023-09-12T05:44:08;71.4;;;55.1;;
79592;SDS011;69074;45.164;9.704;2023-09-12T05:46:33;71.4;;;55.1;;
79592;SDS011;69074;45.164;9.704;2023-09-12T05:48:58;64.6;;;50.7;;
79592;SDS011;69074;45.164;9.704;2023-09-12T05:51:23;64.6;;;50.7;;
79592;SDS011;69074;45.164;9.704;2023-09-12T05:53:48;64.6;;;50.7;;
79592;SDS011;69074;45.164;9.704;2023-09-12T05:56:13;64.6;;;50.7;;
79592;SDS011;69074;45.164;9.704;2023-09-12T05:58:38;64.6;;;50.7;;
79592;SDS011;69074;45.164;9.704;2023-09-12T06:01:03;64.6;;;50.7;;
79592;SDS011;69074;45.164;9.704;2023-09-12T06:03:28;58.8;;;48.2;;
79592;SDS011;69074;45.164;9.704;2023-09-12T06:05:53;58.8;;;48.2;;
79592;SDS011;69074;45.164;9.704;2023-09-12T06:08:18;58.8;;;48.2;;
79592;SDS011;69074;45.164;9.704;2023-09-12T06:10:43;58.8;;;48.2;;
79592;SDS011;69074;45.164;9.704;2023-09-12T06:13:08;58.8;;;48.2;;
79592;SDS011;69074;45.164;9.704;2023-09-12T06:15:33;58.8;;;48.2;;
79592;SDS011;69074;45.164;9.704;2023-09-12T06:17:58;66.2;;;47.6;;
79592;SDS011;69074;45.164;9.704;2023-09-12T06:20:23;66.2;;;47.6;;
79592;SDS011;69074;45.164;9.704;2023-09-12T06:22:48;66.2;;;47.6;;
79592;SDS011;69074;45.164;9.704;2023-09-12T06:25:13;66.2;;;47.6;;
79592;SDS011;69074;45.164;9.704;2023-09-12T06:27:38;66.2;;;47.6;;
79592;SDS011;69074;45.164;9.704;2023-09-12T06:30:04;66.2;;;47.6;;
79592;SDS011;69074;45.164;9.704;2023-09-12T06:32:28;64.4;;;50.9;;
79592;SDS011;69074;45.164;9.704;2023-09-12T06:34:53;64.4;;;50.9;;
79592;SDS011;69074;45.164;9.704;2023-09-12T06:37:18;64.4;;;50.9;;
79592;SDS011;69074;45.164;9.704;2023-09-12T06:39:43;64.4;;;50.9;;
79592;SDS011;69074;45.164;9.704;2023-09-12T06:42:08;64.4;;;50.9;;
79592;SDS011;69074;45.164;9.704;2023-09-12T06:44:33;64.4;;;50.9;;
79592;SDS011;69074;45.164;9.704;2023-09-12T06:46:58;64.4;;;50.9;;
79592;SDS011;69074;45.164;9.704;2023-09-12T06:49:23;69.3;;;53.2;;
79592;SDS011;69074;45.164;9.704;2023-09-12T06:51:48;69.3;;;53.2;;
79592;SDS011;69074;45.164;9.704;2023-09-12T06:54:13;69.3;;;53.2;;
79592;SDS011;69074;45.164;9.704;2023-09-12T06:56:38;69.3;;;53.2;;
79592;SDS011;69074;45.164;9.704;2023-09-12T06:59:03;69.3;;;53.2;;
79592;SDS011;69074;45.164;9.704;2023-09-12T07:01:28;69.3;;;53.2;;
79592;SDS011;69074;45.164;9.704;2023-09-12T07:03:53;76.0;;;57.0;;
79592;SDS011;69074;45.164;9.704;2023-09-12T07:06:19;76.0;;;57.0;;
79592;SDS011;69074;45.164;9.704;2023-09-12T07:08:43;76.0;;;57.0;;
79592;SDS011;69074;45.164;9.704;2023-09-12T07:11:08;76.0;;;57.0;;
79592;SDS011;69074;45.164;9.704;2023-09-12T07:13:33;76.0;;;57.0;;
79592;SDS011;69074;45.164;9.704;2023-09-12T07:15:58;76.0;;;57.0;;
79592;SDS011;69074;45.164;9.704;2023-09-12T07:18:23;76.0;;;57.0;;
79592;SDS011;69074;45.164;9.704;2023-09-12T07:20:56;76.0;;;57.0;;
79592;SDS011;69074;45.164;9.704;2023-09-12T07:23:13;76.0;;;57.0;;
79592;SDS011;69074;45.164;9.704;2023-09-12T07:25:39;76.0;;;57.0;;
79592;SDS011;69074;45.164;9.704;2023-09-12T07:28:03;76.0;;;57.0;;
79592;SDS011;69074;45.164;9.704;2023-09-12T07:30:28;76.0;;;57.0;;
79592;SDS011;69074;45.164;9.704;2023-09-12T07:32:53;88.1;;;67.5;;
79592;SDS011;69074;45.164;9.704;2023-09-12T07:35:18;88.1;;;67.5;;
79592;SDS011;69074;45.164;9.704;2023-09-12T07:37:43;88.1;;;67.5;;
79592;SDS011;69074;45.164;9.704;2023-09-12T07:40:09;88.1;;;67.5;;
79592;SDS011;69074;45.164;9.704;2023-09-12T07:42:33;88.1;;;67.5;;
79592;SDS011;69074;45.164;9.704;2023-09-12T07:44:58;88.1;;;67.5;;
79592;SDS011;69074;45.164;9.704;2023-09-12T07:47:23;125.5;;;101.4;;
79592;SDS011;69074;45.164;9.704;2023-09-12T07:49:52;125.5;;;101.4;;
79592;SDS011;69074;45.164;9.704;2023-09-12T07:52:13;125.5;;;101.4;;
79592;SDS011;69074;45.164;9.704;2023-09-12T07:54:38;125.5;;;101.4;;
79592;SDS011;69074;45.164;9.704;2023-09-12T07:57:04;125.5;;;101.4;;
79592;SDS011;69074;45.164;9.704;2023-09-12T07:59:28;125.5;;;101.4;;
79592;SDS011;69074;45.164;9.704;2023-09-12T08:01:53;125.5;;;101.4;;
79592;SDS011;69074;45.164;9.704;2023-09-12T08:04:18;125.5;;;101.4;;
79592;SDS011;69074;45.164;9.704;2023-09-12T08:06:43;125.5;;;101.4;;
79592;SDS011;69074;45.164;9.704;2023-09-12T08:09:09;125.5;;;101.4;;
79592;SDS011;69074;45.164;9.704;2023-09-12T08:11:33;125.5;;;101.4;;
79592;SDS011;69074;45.164;9.704;2023-09-12T08:13:59;125.5;;;101.4;;
79592;SDS011;69074;45.164;9.704;2023-09-12T08:16:23;125.5;;;101.4;;
79592;SDS011;69074;45.164;9.704;2023-09-12T08:18:48;125.7;;;98.3;;
79592;SDS011;69074;45.164;9.704;2023-09-12T08:21:13;125.7;;;98.3;;
79592;SDS011;69074;45.164;9.704;2023-09-12T08:23:38;125.7;;;98.3;;
79592;SDS011;69074;45.164;9.704;2023-09-12T08:26:03;125.7;;;98.3;;
79592;SDS011;69074;45.164;9.704;2023-09-12T08:28:28;125.7;;;98.3;;
79592;SDS011;69074;45.164;9.704;2023-09-12T08:30:54;125.7;;;98.3;;
79592;SDS011;69074;45.164;9.704;2023-09-12T08:33:18;125.7;;;98.3;;
79592;SDS011;69074;45.164;9.704;2023-09-12T08:35:43;125.7;;;98.3;;
79592;SDS011;69074;45.164;9.704;2023-09-12T08:38:08;125.7;;;98.3;;
79592;SDS011;69074;45.164;9.704;2023-09-12T08:40:33;125.7;;;98.3;;
79592;SDS011;69074;45.164;9.704;2023-09-12T08:42:58;125.7;;;98.3;;
79592;SDS011;69074;45.164;9.704;2023-09-12T08:45:23;125.7;;;98.3;;
79592;SDS011;69074;45.164;9.704;2023-09-12T08:47:49;89.5;;;71.4;;
79592;SDS011;69074;45.164;9.704;2023-09-12T08:50:14;89.5;;;71.4;;
79592;SDS011;69074;45.164;9.704;2023-09-12T08:52:39;89.5;;;71.4;;
79592;SDS011;69074;45.164;9.704;2023-09-12T08:55:04;89.5;;;71.4;;
79592;SDS011;69074;45.164;9.704;2023-09-12T08:57:28;89.5;;;71.4;;
79592;SDS011;69074;45.164;9.704;2023-09-12T08:59:53;89.5;;;71.4;;
79592;SDS011;69074;45.164;9.704;2023-09-12T09:02:19;89.5;;;71.4;;
79592;SDS011;69074;45.164;9.704;2023-09-12T09:04:43;89.5;;;71.4;;
79592;SDS011;69074;45.164;9.704;2023-09-12T09:07:08;89.5;;;71.4;;
79592;SDS011;69074;45.164;9.704;2023-09-12T09:09:33;89.5;;;71.4;;
79592;SDS011;69074;45.164;9.704;2023-09-12T09:11:58;89.5;;;71.4;;
79592;SDS011;69074;45.164;9.704;2023-09-12T09:14:23;89.5;;;71.4;;
79592;SDS011;69074;45.164;9.704;2023-09-12T09:16:49;89.5;;;71.4;;
79592;SDS011;69074;45.164;9.704;2023-09-12T09:19:13;77.3;;;61.2;;
79592;SDS011;69074;45.164;9.704;2023-09-12T09:21:39;77.3;;;61.2;;
79592;SDS011;69074;45.164;9.704;2023-09-12T09:24:04;77.3;;;61.2;;
79592;SDS011;69074;45.164;9.704;2023-09-12T09:26:40;77.3;;;61.2;;
79592;SDS011;69074;45.164;9.704;2023-09-12T09:29:09;77.3;;;61.2;;
79592;SDS011;69074;45.164;9.704;2023-09-12T09:31:18;77.3;;;61.2;;
79592;SDS011;69074;45.164;9.704;2023-09-12T09:33:43;69.5;;;55.7;;
79592;SDS011;69074;45.164;9.704;2023-09-12T09:36:08;69.5;;;55.7;;
79592;SDS011;69074;45.164;9.704;2023-09-12T09:38:34;69.5;;;55.7;;
79592;SDS011;69074;45.164;9.704;2023-09-12T09:40:58;69.5;;;55.7;;
79592;SDS011;69074;45.164;9.704;2023-09-12T09:43:23;69.5;;;55.7;;
79592;SDS011;69074;45.164;9.704;2023-09-12T09:45:48;69.5;;;55.7;;
79592;SDS011;69074;45.164;9.704;2023-09-12T09:48:21;90.8;;;72.8;;
79592;SDS011;69074;45.164;9.704;2023-09-12T09:50:39;90.8;;;72.8;;
79592;SDS011;69074;45.164;9.704;2023-09-12T09:53:04;90.8;;;72.8;;
79592;SDS011;69074;45.164;9.704;2023-09-12T09:55:29;90.8;;;72.8;;
79592;SDS011;69074;45.164;9.704;2023-09-12T09:57:53;90.8;;;72.8;;
79592;SDS011;69074;45.164;9.704;2023-09-12T10:00:19;90.8;;;72.8;;
79592;SDS011;69074;45.164;9.704;2023-09-12T10:02:44;62.4;;;51.3;;
79592;SDS011;69074;45.164;9.704;2023-09-12T10:05:09;62.4;;;51.3;;
79592;SDS011;69074;45.164;9.704;2023-09-12T10:07:33;62.4;;;51.3;;
79592;SDS011;69074;45.164;9.704;2023-09-12T10:09:59;62.4;;;51.3;;
79592;SDS011;69074;45.164;9.704;2023-09-12T10:12:24;62.4;;;51.3;;
79592;SDS011;69074;45.164;9.704;2023-09-12T10:14:49;62.4;;;51.3;;
79592;SDS011;69074;45.164;9.704;2023-09-12T10:17:14;62.4;;;51.3;;
79592;SDS011;69074;45.164;9.704;2023-09-12T10:19:40;51.7;;;42.4;;
79592;SDS011;69074;45.164;9.704;2023-09-12T10:22:12;51.7;;;42.4;;
79592;SDS011;69074;45.164;9.704;2023-09-12T10:24:29;51.7;;;42.4;;
79592;SDS011;69074;45.164;9.704;2023-09-12T10:26:54;51.7;;;42.4;;
79592;SDS011;69074;45.164;9.704;2023-09-12T10:29:19;51.7;;;42.4;;
79592;SDS011;69074;45.164;9.704;2023-09-12T10:31:44;51.7;;;42.4;;
79592;SDS011;69074;45.164;9.704;2023-09-12T10:34:10;56.3;;;42.4;;
79592;SDS011;69074;45.164;9.704;2023-09-12T10:36:33;56.3;;;42.4;;
79592;SDS011;69074;45.164;9.704;2023-09-12T10:38:59;56.3;;;42.4;;
79592;SDS011;69074;45.164;9.704;2023-09-12T10:41:24;56.3;;;42.4;;
79592;SDS011;69074;45.164;9.704;2023-09-12T10:43:49;56.3;;;42.4;;
79592;SDS011;69074;45.164;9.704;2023-09-12T10:46:14;56.3;;;42.4;;
79592;SDS011;69074;45.164;9.704;2023-09-12T10:48:39;41.9;;;34.9;;
79592;SDS011;69074;45.164;9.704;2023-09-12T10:51:04;41.9;;;34.9;;
79592;SDS011;69074;45.164;9.704;2023-09-12T10:53:29;41.9;;;34.9;;
79592;SDS011;69074;45.164;9.704;2023-09-12T10:56:13;41.9;;;34.9;;
79592;SDS011;69074;45.164;9.704;2023-09-12T10:58:19;41.9;;;34.9;;
79592;SDS011;69074;45.164;9.704;2023-09-12T11:00:44;41.9;;;34.9;;
79592;SDS011;69074;45.164;9.704;2023-09-12T11:03:40;35.7;;;29.5;;
79592;SDS011;69074;45.164;9.704;2023-09-12T11:05:35;35.7;;;29.5;;
79592;SDS011;69074;45.164;9.704;2023-09-12T11:07:59;35.7;;;29.5;;
79592;SDS011;69074;45.164;9.704;2023-09-12T11:10:24;35.7;;;29.5;;
79592;SDS011;69074;45.164;9.704;2023-09-12T11:12:49;35.7;;;29.5;;
79592;SDS011;69074;45.164;9.704;2023-09-12T11:15:14;35.7;;;29.5;;
79592;SDS011;69074;45.164;9.704;2023-09-12T11:17:39;34.3;;;30.2;;
79592;SDS011;69074;45.164;9.704;2023-09-12T11:20:04;34.3;;;30.2;;
79592;SDS011;69074;45.164;9.704;2023-09-12T11:22:29;34.3;;;30.2;;
79592;SDS011;69074;45.164;9.704;2023-09-12T11:24:54;34.3;;;30.2;;
79592;SDS011;69074;45.164;9.704;2023-09-12T11:27:19;34.3;;;30.2;;
79592;SDS011;69074;45.164;9.704;2023-09-12T11:29:44;34.3;;;30.2;;
79592;SDS011;69074;45.164;9.704;2023-09-12T11:32:09;34.3;;;30.2;;
79592;SDS011;69074;45.164;9.704;2023-09-12T11:34:36;49.4;;;39.4;;
79592;SDS011;69074;45.164;9.704;2023-09-12T11:36:59;49.4;;;39.4;;
79592;SDS011;69074;45.164;9.704;2023-09-12T11:39:24;49.4;;;39.4;;
79592;SDS011;69074;45.164;9.704;2023-09-12T11:41:49;49.4;;;39.4;;
79592;SDS011;69074;45.164;9.704;2023-09-12T11:44:14;49.4;;;39.4;;
79592;SDS011;69074;45.164;9.704;2023-09-12T11:46:39;49.4;;;39.4;;
79592;SDS011;69074;45.164;9.704;2023-09-12T11:49:04;34.9;;;28.2;;
79592;SDS011;69074;45.164;9.704;2023-09-12T11:51:29;34.9;;;28.2;;
79592;SDS011;69074;45.164;9.704;2023-09-12T11:53:54;34.9;;;28.2;;
79592;SDS011;69074;45.164;9.704;2023-09-12T11:56:19;34.9;;;28.2;;
79592;SDS011;69074;45.164;9.704;2023-09-12T11:58:44;34.9;;;28.2;;
79592;SDS011;69074;45.164;9.704;2023-09-12T12:01:09;34.9;;;28.2;;
79592;SDS011;69074;45.164;9.704;2023-09-12T12:03:34;28.9;;;23.3;;
79592;SDS011;69074;45.164;9.704;2023-09-12T12:05:59;28.9;;;23.3;;
79592;SDS011;69074;45.164;9.704;2023-09-12T12:08:24;28.9;;;23.3;;
79592;SDS011;69074;45.164;9.704;2023-09-12T12:10:49;28.9;;;23.3;;
79592;SDS011;69074;45.164;9.704;2023-09-12T12:13:16;28.9;;;23.3;;
79592;SDS011;69074;45.164;9.704;2023-09-12T12:15:39;28.9;;;23.3;;
79592;SDS011;69074;45.164;9.704;2023-09-12T12:18:04;37.4;;;33.3;;
79592;SDS011;69074;45.164;9.704;2023-09-12T12:20:29;37.4;;;33.3;;
79592;SDS011;69074;45.164;9.704;2023-09-12T12:22:54;37.4;;;33.3;;
79592;SDS011;69074;45.164;9.704;2023-09-12T12:25:19;37.4;;;33.3;;
79592;SDS011;69074;45.164;9.704;2023-09-12T12:27:44;37.4;;;33.3;;
79592;SDS011;69074;45.164;9.704;2023-09-12T12:30:09;37.4;;;33.3;;
79592;SDS011;69074;45.164;9.704;2023-09-12T12:32:34;25.6;;;21.1;;
79592;SDS011;69074;45.164;9.704;2023-09-12T12:34:59;25.6;;;21.1;;
79592;SDS011;69074;45.164;9.704;2023-09-12T12:37:25;25.6;;;21.1;;
79592;SDS011;69074;45.164;9.704;2023-09-12T12:39:49;25.6;;;21.1;;
79592;SDS011;69074;45.164;9.704;2023-09-12T12:42:14;25.6;;;21.1;;
79592;SDS011;69074;45.164;9.704;2023-09-12T12:44:39;25.6;;;21.1;;
79592;SDS011;69074;45.164;9.704;2023-09-12T12:47:04;25.6;;;21.1;;
79592;SDS011;69074;45.164;9.704;2023-09-12T12:49:29;28.2;;;22.8;;
79592;SDS011;69074;45.164;9.704;2023-09-12T12:51:54;28.2;;;22.8;;
79592;SDS011;69074;45.164;9.704;2023-09-12T12:54:21;28.2;;;22.8;;
79592;SDS011;69074;45.164;9.704;2023-09-12T12:56:44;28.2;;;22.8;;
79592;SDS011;69074;45.164;9.704;2023-09-12T12:59:10;28.2;;;22.8;;
79592;SDS011;69074;45.164;9.704;2023-09-12T13:01:34;28.2;;;22.8;;
79592;SDS011;69074;45.164;9.704;2023-09-12T13:03:59;17.1;;;15.4;;
79592;SDS011;69074;45.164;9.704;2023-09-12T13:06:24;17.1;;;15.4;;
79592;SDS011;69074;45.164;9.704;2023-09-12T13:08:49;17.1;;;15.4;;
79592;SDS011;69074;45.164;9.704;2023-09-12T13:11:14;17.1;;;15.4;;
79592;SDS011;69074;45.164;9.704;2023-09-12T13:13:39;17.1;;;15.4;;
79592;SDS011;69074;45.164;9.704;2023-09-12T13:16:04;17.1;;;15.4;;
79592;SDS011;69074;45.164;9.704;2023-09-12T13:18:29;13.1;;;11.7;;
79592;SDS011;69074;45.164;9.704;2023-09-12T13:20:54;13.1;;;11.7;;
79592;SDS011;69074;45.164;9.704;2023-09-12T13:23:19;13.1;;;11.7;;
79592;SDS011;69074;45.164;9.704;2023-09-12T13:25:44;13.1;;;11.7;;
79592;SDS011;69074;45.164;9.704;2023-09-12T13:28:09;13.1;;;11.7;;
79592;SDS011;69074;45.164;9.704;2023-09-12T13:30:34;13.1;;;11.7;;
79592;SDS011;69074;45.164;9.704;2023-09-12T13:32:59;13.3;;;12.0;;
79592;SDS011;69074;45.164;9.704;2023-09-12T13:35:24;13.3;;;12.0;;
79592;SDS011;69074;45.164;9.704;2023-09-12T13:37:49;13.3;;;12.0;;
79592;SDS011;69074;45.164;9.704;2023-09-12T13:40:14;13.3;;;12.0;;
79592;SDS011;69074;45.164;9.704;2023-09-12T13:42:39;13.3;;;12.0;;
79592;SDS011;69074;45.164;9.704;2023-09-12T13:45:04;13.3;;;12.0;;
79592;SDS011;69074;45.164;9.704;2023-09-12T13:47:29;15.4;;;13.5;;
79592;SDS011;69074;45.164;9.704;2023-09-12T13:49:54;15.4;;;13.5;;
79592;SDS011;69074;45.164;9.704;2023-09-12T13:52:19;15.4;;;13.5;;
79592;SDS011;69074;45.164;9.704;2023-09-12T13:54:44;15.4;;;13.5;;
79592;SDS011;69074;45.164;9.704;2023-09-12T13:57:09;15.4;;;13.5;;
79592;SDS011;69074;45.164;9.704;2023-09-12T13:59:34;15.4;;;13.5;;
79592;SDS011;69074;45.164;9.704;2023-09-12T14:01:59;15.4;;;13.5;;
79592;SDS011;69074;45.164;9.704;2023-09-12T14:04:24;19.3;;;17.2;;
79592;SDS011;69074;45.164;9.704;2023-09-12T14:06:49;19.3;;;17.2;;
79592;SDS011;69074;45.164;9.704;2023-09-12T14:09:14;19.3;;;17.2;;
79592;SDS011;69074;45.164;9.704;2023-09-12T14:11:39;19.3;;;17.2;;
79592;SDS011;69074;45.164;9.704;2023-09-12T14:14:04;19.3;;;17.2;;
79592;SDS011;69074;45.164;9.704;2023-09-12T14:16:29;19.3;;;17.2;;
79592;SDS011;69074;45.164;9.704;2023-09-12T14:18:54;14.5;;;13.1;;
79592;SDS011;69074;45.164;9.704;2023-09-12T14:21:19;14.5;;;13.1;;
79592;SDS011;69074;45.164;9.704;2023-09-12T14:23:44;14.5;;;13.1;;
79592;SDS011;69074;45.164;9.704;2023-09-12T14:26:09;14.5;;;13.1;;
79592;SDS011;69074;45.164;9.704;2023-09-12T14:28:34;14.5;;;13.1;;
79592;SDS011;69074;45.164;9.704;2023-09-12T14:30:59;14.5;;;13.1;;